Time;durP1;ratioP1;P1;durP2;ratioP2;P2;SDS_P1;SDS_P2;PMS_P1;PMS_P2;Temp;Humidity;BMP_temperature;BMP_pressure;BME280_temperature;BME280_humidity;BME280_pressure;Samples;Min_cycle;Max_cycle;Signal;HPM_P1;HPM_P2
2023/11/11 11:38:54;;;;;;;8.43;3.45;;;;;;;8.88;76.42;95783.69;6150916;23;20022;-80
2023/11/11 11:41:36;;;;;;;4.95;3.35;;;;;;;8.93;74.55;95783.13;6185093;23;20018;-80
2023/11/11 11:44:13;;;;;;;4.80;2.58;;;;;;;8.96;73.55;95786.13;6184870;23;20001;-80
2023/11/11 11:47:00;;;;;;;2.67;2.40;;;;;;;9.52;72.83;95787.00;6185284;23;20040;-80
2023/11/11 11:49:45;;;;;;;3.15;2.53;;;;;;;10.07;71.57;95793.75;6177040;23;20017;-79
2023/11/11 11:55:11;;;;;;;4.70;2.60;;;;;;;9.62;73.26;95783.03;6184527;23;20005;-82
2023/11/11 11:57:57;;;;;;;3.58;2.85;;;;;;;9.40;72.58;95784.97;6038724;23;20064;-81
2023/11/11 12:00:42;;;;;;;4.18;2.85;;;;;;;9.30;74.79;95792.31;6038632;23;20019;-81
2023/11/11 12:14:07;;;;;;;2.58;2.30;;;;;;;9.00;71.05;95789.94;6182508;23;20029;-81
2023/11/11 12:19:49;;;;;;;2.85;1.83;;;;;;;8.85;68.71;95791.84;6164166;23;20085;-82
2023/11/11 12:34:20;;;;;;;3.50;1.98;;;;;;;9.01;72.51;95798.56;6167161;23;20033;-80
2023/11/11 12:37:03;;;;;;;0.90;0.75;;;;;;;9.00;68.38;95783.94;6181925;23;20017;-80
2023/11/11 12:39:39;;;;;;;2.55;1.27;;;;;;;9.00;68.88;95795.16;6182098;23;20021;-80
2023/11/11 12:42:19;;;;;;;1.33;1.23;;;;;;;9.03;66.92;95788.75;6182474;23;20029;-81
2023/11/11 12:44:58;;;;;;;2.95;1.45;;;;;;;9.04;64.84;95793.78;6182097;23;20033;-80
2023/11/11 12:47:42;;;;;;;1.50;1.38;;;;;;;9.04;64.11;95796.38;6182785;23;20022;-81
2023/11/11 12:50:13;;;;;;;4.05;1.88;;;;;;;9.08;66.06;95800.22;6182562;23;20013;-81
2023/11/11 12:53:07;;;;;;;2.00;1.55;;;;;;;9.06;65.59;95802.19;6182661;23;20009;-80
2023/11/11 12:55:38;;;;;;;3.17;1.67;;;;;;;9.00;66.28;95807.34;6183669;23;20009;-81
2023/11/11 13:03:41;;;;;;;3.25;1.60;;;;;;;8.71;65.99;95832.56;6157315;23;20037;-81
2023/11/11 13:06:37;;;;;;;2.22;1.50;;;;;;;8.57;68.41;95828.25;6184294;23;20036;-81
2023/11/11 13:14:57;;;;;;;2.73;1.80;;;;;;;8.74;72.31;95826.19;6153068;23;20017;-81
2023/11/11 13:29:43;;;;;;;2.55;2.05;;;;;;;8.56;71.83;95830.06;6135408;23;20062;-81
2023/11/11 13:41:56;;;;;;;3.17;1.60;;;;;;;8.53;73.52;95853.03;6125284;23;20018;-81
2023/11/11 14:38:40;;;;;;;13.50;2.58;;;;;;;8.39;77.14;95846.88;5091424;27;20367;-82
2023/11/11 14:41:09;;;;;;;12.63;2.33;;;;;;;8.30;75.25;95850.59;5316637;22;20126;-80
2023/11/11 14:43:47;;;;;;;2.38;1.90;;;;;;;8.21;73.46;95842.91;5175981;22;20135;-81
2023/11/11 14:46:21;;;;;;;8.05;3.33;;;;;;;8.06;77.74;95844.75;5153914;27;20047;-81
2023/11/11 14:48:49;;;;;;;6.32;2.60;;;;;;;7.96;77.75;95847.66;5154309;28;20057;-81
2023/11/11 14:51:17;;;;;;;4.40;2.10;;;;;;;7.83;74.62;95848.31;5153788;27;20087;-81
2023/11/11 14:53:46;;;;;;;2.47;2.25;;;;;;;7.70;72.16;95850.78;5152094;28;20047;-81
2023/11/11 14:56:15;;;;;;;5.15;3.05;;;;;;;7.66;74.68;95846.94;5132722;27;20051;-81
2023/11/11 14:58:46;;;;;;;5.43;3.10;;;;;;;7.62;76.20;95846.47;5117544;28;20044;-81
2023/11/11 15:01:14;;;;;;;4.32;2.33;;;;;;;7.60;74.83;95856.22;5134421;27;20047;-81
2023/11/11 15:03:43;;;;;;;4.05;2.45;;;;;;;7.54;74.12;95861.34;5134760;28;20032;-81
2023/11/11 15:06:12;;;;;;;3.83;2.88;;;;;;;7.43;73.48;95866.03;5134663;27;20119;-81
2023/11/11 15:08:40;;;;;;;4.20;2.30;;;;;;;7.34;72.61;95871.47;5123130;28;20051;-80
2023/11/11 15:11:10;;;;;;;3.85;3.03;;;;;;;7.27;73.48;95868.78;5133409;27;20035;-81
2023/11/11 15:13:45;;;;;;;5.60;3.67;;;;;;;7.25;75.04;95868.16;5136868;28;20043;-81
2023/11/11 15:16:16;;;;;;;6.22;3.50;;;;;;;7.26;77.14;95864.59;5133305;28;20115;-81
2023/11/11 15:18:45;;;;;;;4.93;2.80;;;;;;;7.30;79.22;95867.63;5132913;27;20048;-81
2023/11/11 15:21:14;;;;;;;3.17;1.85;;;;;;;7.26;76.07;95864.59;5132828;28;20043;-81
2023/11/11 15:23:42;;;;;;;3.45;2.30;;;;;;;7.17;74.46;95865.63;5152716;27;20309;-81
2023/11/11 15:26:13;;;;;;;6.82;4.32;;;;;;;7.18;80.04;95877.63;5153410;27;20069;-81
2023/11/11 15:28:41;;;;;;;2.70;2.33;;;;;;;7.17;77.10;95881.19;5153450;28;20065;-81
2023/11/11 15:31:12;;;;;;;7.72;2.78;;;;;;;7.09;74.21;95884.69;5152354;28;20043;-81
2023/11/11 15:33:42;;;;;;;7.22;3.35;;;;;;;7.07;76.08;95888.44;5152062;28;20066;-82
2023/11/11 15:36:10;;;;;;;4.50;2.75;;;;;;;7.05;75.15;95887.81;5152636;28;20622;-81
2023/11/11 15:38:38;;;;;;;4.32;2.47;;;;;;;7.00;75.05;95891.75;5144869;28;20047;-81
2023/11/11 15:41:06;;;;;;;4.80;3.08;;;;;;;6.97;75.31;95884.31;5139003;28;20302;-81
2023/11/11 15:43:36;;;;;;;3.78;3.15;;;;;;;6.95;74.94;95898.44;5138968;27;20067;-81
2023/11/11 15:46:05;;;;;;;8.75;4.22;;;;;;;6.92;77.53;95904.78;5138665;28;20063;-81
2023/11/11 15:48:34;;;;;;;4.78;3.47;;;;;;;6.88;77.49;95897.53;5139026;28;20060;-81
2023/11/11 15:51:02;;;;;;;7.97;3.97;;;;;;;6.86;79.01;95904.69;5139628;27;20378;-81
2023/11/11 15:53:45;;;;;;;7.63;4.67;;;;;;;6.85;80.41;95908.25;5137925;28;20096;-81
2023/11/11 15:56:15;;;;;;;7.15;4.97;;;;;;;6.81;79.28;95908.59;5128490;28;20284;-81
2023/11/11 15:58:48;;;;;;;8.00;4.55;;;;;;;6.79;77.87;95914.94;5118674;28;20050;-81
2023/11/11 16:01:18;;;;;;;8.43;5.22;;;;;;;6.72;78.23;95912.25;5119009;28;20048;-81
2023/11/11 16:03:48;;;;;;;7.95;4.47;;;;;;;6.70;78.56;95918.59;5118879;28;20074;-82
2023/11/11 16:06:18;;;;;;;6.85;5.25;;;;;;;6.66;77.54;95920.72;5118555;28;20032;-82
2023/11/11 16:08:46;;;;;;;9.15;5.47;;;;;;;6.60;78.26;95922.22;5118094;28;20028;-81
2023/11/11 16:11:17;;;;;;;6.55;5.05;;;;;;;6.57;78.96;95927.72;5117854;28;20043;-81
2023/11/11 16:13:47;;;;;;;6.47;5.28;;;;;;;6.54;78.38;95922.91;5118396;28;20051;-80
2023/11/11 16:16:20;;;;;;;9.52;5.88;;;;;;;6.49;80.25;95930.38;5117796;28;20039;-81
2023/11/11 16:18:48;;;;;;;7.70;5.13;;;;;;;6.47;78.74;95932.38;5117697;28;20052;-81
2023/11/11 16:21:19;;;;;;;6.80;5.57;;;;;;;6.45;79.54;95930.91;5117945;28;20083;-81
2023/11/11 16:23:47;;;;;;;6.85;5.22;;;;;;;6.43;80.40;95936.28;5118015;28;20040;-80
2023/11/11 16:26:19;;;;;;;8.52;5.05;;;;;;;6.40;79.58;95937.41;5117933;28;20052;-81
2023/11/11 16:28:50;;;;;;;7.47;4.85;;;;;;;6.33;79.49;95940.84;5117840;28;20036;-81
2023/11/11 16:31:23;;;;;;;9.27;6.85;;;;;;;6.26;77.45;95940.75;5116853;28;20058;-82
2023/11/11 16:33:54;;;;;;;10.05;6.43;;;;;;;6.15;76.30;95941.13;5118297;28;20032;-81
2023/11/11 16:36:23;;;;;;;6.15;5.05;;;;;;;6.01;75.93;95942.63;5131749;27;20044;-80
2023/11/11 16:38:51;;;;;;;6.72;4.90;;;;;;;5.90;75.57;95938.63;5117183;28;20055;-79
2023/11/11 16:41:18;;;;;;;6.63;5.20;;;;;;;5.82;76.36;95945.63;5114496;28;20059;-81
2023/11/11 16:43:46;;;;;;;7.90;5.10;;;;;;;5.76;76.20;95944.50;5108328;28;20142;-81
2023/11/11 16:46:15;;;;;;;8.75;6.32;;;;;;;5.71;76.78;95950.19;5117924;28;20044;-80
2023/11/11 16:48:43;;;;;;;8.75;7.25;;;;;;;5.64;76.50;95951.84;5121262;28;20583;-80
2023/11/11 16:51:21;;;;;;;11.23;8.27;;;;;;;5.55;76.07;95956.22;5121854;27;20103;-84
2023/11/11 16:53:56;;;;;;;9.32;6.55;;;;;;;5.48;75.59;95952.66;5237232;22;20147;-81
2023/11/11 16:56:23;;;;;;;12.18;6.95;;;;;;;5.41;75.92;95950.91;5102433;28;20056;-79
2023/11/11 16:58:52;;;;;;;14.32;7.72;;;;;;;5.33;75.82;95952.53;5102169;28;20079;-81
2023/11/11 17:01:21;;;;;;;11.65;8.50;;;;;;;5.28;75.89;95947.06;5097239;28;20052;-81
2023/11/11 17:03:49;;;;;;;20.90;15.02;;;;;;;5.26;76.85;95961.13;5100003;28;20048;-80
2023/11/11 17:06:20;;;;;;;23.85;19.48;;;;;;;5.23;76.08;95961.47;5095075;28;20071;-81
2023/11/11 17:08:47;;;;;;;18.55;15.45;;;;;;;5.16;75.45;95958.72;5082111;28;20112;-81
2023/11/11 17:11:15;;;;;;;23.25;16.48;;;;;;;5.11;75.61;95958.38;5078999;28;20131;-79
2023/11/11 17:13:43;;;;;;;22.58;14.10;;;;;;;5.04;76.07;95963.41;5084240;28;20120;-81
2023/11/11 17:16:10;;;;;;;23.08;14.48;;;;;;;4.97;75.74;95970.19;5090343;28;20111;-81
2023/11/11 17:18:39;;;;;;;14.10;10.10;;;;;;;4.92;75.77;95973.28;5100389;28;20048;-81
2023/11/11 17:21:09;;;;;;;16.30;10.27;;;;;;;4.89;75.13;95967.59;5095677;28;20058;-81
2023/11/11 17:23:36;;;;;;;16.25;9.30;;;;;;;4.82;75.62;95967.44;5093298;28;20424;-79
2023/11/11 17:26:04;;;;;;;16.70;10.18;;;;;;;4.76;75.83;95973.25;5075960;28;20059;-81
2023/11/11 17:28:32;;;;;;;15.32;9.35;;;;;;;4.75;75.87;95974.22;5079005;28;20049;-82
2023/11/11 17:31:00;;;;;;;15.13;8.13;;;;;;;4.78;76.24;95971.31;5085835;28;20040;-80
2023/11/11 17:33:28;;;;;;;10.65;8.98;;;;;;;4.78;76.27;95966.16;5096416;28;20083;-81
2023/11/11 17:36:09;;;;;;;11.40;8.52;;;;;;;4.75;76.17;95969.06;5097888;28;20040;-81
2023/11/11 17:38:38;;;;;;;10.38;7.72;;;;;;;4.71;75.95;95965.19;5101811;28;20032;-80
2023/11/11 17:41:06;;;;;;;11.05;8.85;;;;;;;4.75;78.92;95971.66;5115394;28;20036;-80
2023/11/11 17:43:34;;;;;;;8.93;7.70;;;;;;;4.81;80.44;95973.59;5116035;28;20093;-79
2023/11/11 17:46:04;;;;;;;10.52;7.22;;;;;;;4.80;79.42;95971.97;5108560;28;20050;-81
2023/11/11 17:48:32;;;;;;;10.02;7.40;;;;;;;4.82;80.18;95964.88;5098642;28;20054;-81
2023/11/11 17:51:00;;;;;;;16.70;10.75;;;;;;;4.83;80.17;95958.75;5098747;28;20052;-81
2023/11/11 17:53:29;;;;;;;17.98;12.60;;;;;;;4.83;79.01;95958.75;5097714;28;20048;-81
2023/11/11 17:56:00;;;;;;;13.20;8.82;;;;;;;4.78;77.88;95966.16;5097754;28;20101;-81
2023/11/11 17:58:28;;;;;;;8.50;7.18;;;;;;;4.71;77.84;95965.19;5097665;28;20044;-80
2023/11/11 18:00:58;;;;;;;9.68;7.80;;;;;;;4.70;79.63;95966.13;5097230;28;20044;-81
2023/11/11 18:03:26;;;;;;;14.27;9.13;;;;;;;4.68;79.73;95968.06;5097514;28;20422;-81
2023/11/11 18:05:54;;;;;;;13.77;9.25;;;;;;;4.67;79.21;95974.22;5097489;28;20048;-81
2023/11/11 18:08:22;;;;;;;14.80;9.57;;;;;;;4.67;79.69;95963.88;5097728;28;20102;-81
2023/11/11 18:10:51;;;;;;;13.23;9.55;;;;;;;4.67;80.10;95974.22;5096328;28;20051;-81
2023/11/11 18:13:19;;;;;;;14.10;9.93;;;;;;;4.69;80.33;95961.94;5097298;28;20052;-81
2023/11/11 18:15:47;;;;;;;14.52;10.73;;;;;;;4.66;79.67;95967.44;5096887;28;20112;-81
2023/11/11 18:18:14;;;;;;;13.23;9.95;;;;;;;4.63;79.52;95971.13;5096353;28;20060;-81
2023/11/11 18:20:42;;;;;;;16.40;10.82;;;;;;;4.63;78.95;95978.09;5096899;28;20055;-79
2023/11/11 18:23:10;;;;;;;14.25;11.43;;;;;;;4.65;79.56;95974.38;5096190;28;20058;-81
2023/11/11 18:25:40;;;;;;;14.18;10.23;;;;;;;4.67;78.71;95974.22;5106952;28;20028;-81
2023/11/11 18:28:10;;;;;;;11.80;8.65;;;;;;;4.67;77.99;95980.19;5116366;28;20535;-82
2023/11/11 18:30:37;;;;;;;14.35;8.95;;;;;;;4.66;77.67;95978.59;5116528;28;20075;-79
2023/11/11 18:33:05;;;;;;;17.80;11.00;;;;;;;4.66;78.71;95977.78;5111362;28;20044;-80
2023/11/11 18:35:33;;;;;;;15.52;12.23;;;;;;;4.68;79.49;95981.00;5096845;28;20463;-81
2023/11/11 18:38:01;;;;;;;24.38;13.93;;;;;;;4.68;79.15;95984.41;5097499;28;20040;-81
2023/11/11 18:40:29;;;;;;;16.23;9.93;;;;;;;4.69;79.10;95983.41;5095408;28;20052;-81
2023/11/11 18:42:57;;;;;;;10.60;7.18;;;;;;;4.71;79.08;95985.84;5071995;28;20427;-78
2023/11/11 18:45:25;;;;;;;12.52;7.90;;;;;;;4.71;77.48;95985.84;5087551;28;20080;-80
2023/11/11 18:47:53;;;;;;;9.63;7.28;;;;;;;4.73;77.19;95992.47;5092612;28;20139;-80
2023/11/11 18:50:21;;;;;;;8.02;6.75;;;;;;;4.75;76.59;96002.66;5091532;28;20127;-79
2023/11/11 18:52:53;;;;;;;7.75;6.50;;;;;;;4.74;76.26;95995.84;5076018;28;20067;-79
2023/11/11 18:55:20;;;;;;;6.72;5.53;;;;;;;4.72;76.38;95998.63;5073464;28;20514;-80
2023/11/11 18:57:48;;;;;;;8.38;6.20;;;;;;;4.77;76.51;96002.47;5073252;28;20040;-80
2023/11/11 19:00:16;;;;;;;11.48;7.07;;;;;;;4.79;76.02;96000.53;5079396;28;20072;-80
2023/11/11 19:02:45;;;;;;;8.70;6.15;;;;;;;4.78;76.12;96002.31;5078967;28;20064;-79
2023/11/11 19:05:14;;;;;;;8.80;6.30;;;;;;;4.75;77.74;95987.94;5074069;28;20052;-80
2023/11/11 19:07:43;;;;;;;9.07;6.15;;;;;;;4.74;78.25;95990.69;5080658;28;20107;-80
2023/11/11 19:10:11;;;;;;;24.02;16.15;;;;;;;4.70;77.21;95994.56;5082109;28;20044;-78
2023/11/11 19:12:39;;;;;;;14.82;8.93;;;;;;;4.64;76.58;95992.63;5074607;28;20135;-79
2023/11/11 19:15:07;;;;;;;10.35;7.40;;;;;;;4.59;76.49;96000.03;5091531;28;20578;-79
2023/11/11 19:17:41;;;;;;;10.47;6.77;;;;;;;4.56;77.25;95992.63;5087145;28;20053;-81
2023/11/11 19:20:11;;;;;;;10.18;7.22;;;;;;;4.59;79.46;95997.44;5088563;28;20101;-81
2023/11/11 19:22:39;;;;;;;9.90;6.25;;;;;;;4.59;78.38;95997.44;5091392;28;20417;-80
2023/11/11 19:25:07;;;;;;;10.05;6.53;;;;;;;4.56;77.80;95998.59;5075907;28;20566;-80
2023/11/11 19:27:36;;;;;;;9.20;6.22;;;;;;;4.51;76.93;96001.66;5076007;28;20108;-80
2023/11/11 19:30:05;;;;;;;8.13;5.63;;;;;;;4.46;76.65;96003.91;5086821;28;20088;-80
2023/11/11 19:32:32;;;;;;;9.60;5.38;;;;;;;4.43;76.38;96001.63;5098821;28;20047;-80
2023/11/11 19:35:00;;;;;;;11.18;6.00;;;;;;;4.43;76.74;96006.78;5096680;28;20494;-81
2023/11/11 19:37:29;;;;;;;10.65;5.97;;;;;;;4.46;77.41;96013.41;5076405;28;20135;-80
2023/11/11 19:39:57;;;;;;;7.95;5.80;;;;;;;4.47;76.71;96015.84;5086012;28;20123;-80
2023/11/11 19:42:25;;;;;;;12.00;7.72;;;;;;;4.45;76.97;96017.75;5095413;28;20599;-80
2023/11/11 19:44:53;;;;;;;13.68;9.25;;;;;;;4.50;78.92;96018.13;5095840;28;20449;-81
2023/11/11 19:47:21;;;;;;;7.03;5.10;;;;;;;4.53;78.26;96030.72;5087341;28;20052;-80
2023/11/11 19:49:48;;;;;;;6.45;4.75;;;;;;;4.48;77.23;96024.38;5075259;28;20049;-80
2023/11/11 19:52:16;;;;;;;6.80;4.95;;;;;;;4.47;78.58;96033.91;5074933;28;20502;-81
2023/11/11 19:54:45;;;;;;;6.03;4.80;;;;;;;4.50;78.93;96037.94;5075355;28;20049;-81
2023/11/11 19:57:14;;;;;;;6.63;4.70;;;;;;;4.51;79.22;96026.66;5093458;28;20132;-80
2023/11/11 19:59:41;;;;;;;6.95;4.55;;;;;;;4.50;78.64;96036.19;5087073;28;20047;-80
2023/11/11 20:02:09;;;;;;;7.95;5.20;;;;;;;4.48;78.46;96038.13;5092062;28;20052;-80
2023/11/11 20:04:38;;;;;;;9.18;5.35;;;;;;;4.45;77.93;96032.47;5095350;28;20072;-80
2023/11/11 20:07:06;;;;;;;10.35;6.38;;;;;;;4.44;77.58;96030.81;5094709;28;20044;-81
2023/11/11 20:09:35;;;;;;;10.57;6.25;;;;;;;4.44;78.05;96033.41;5087400;28;20490;-79
2023/11/11 20:12:05;;;;;;;7.05;5.07;;;;;;;4.43;77.94;96039.56;5074891;28;20498;-81
2023/11/11 20:14:32;;;;;;;10.68;5.93;;;;;;;4.43;77.63;96037.78;5088399;28;20082;-80
2023/11/11 20:17:03;;;;;;;9.35;5.68;;;;;;;4.48;77.44;96037.28;5094006;28;20168;-80
2023/11/11 20:19:31;;;;;;;7.75;5.82;;;;;;;4.49;76.63;96034.56;5095040;28;20044;-80
2023/11/11 20:21:58;;;;;;;8.20;5.88;;;;;;;4.52;77.30;96044.56;5085709;28;20136;-80
2023/11/11 20:24:26;;;;;;;9.52;5.78;;;;;;;4.52;78.29;96044.56;5087781;28;20139;-80
2023/11/11 20:26:54;;;;;;;9.18;5.93;;;;;;;4.57;79.22;96045.88;5087273;28;20436;-80
2023/11/11 20:29:23;;;;;;;7.57;6.10;;;;;;;4.63;78.56;96050.41;5074879;28;20112;-80
2023/11/11 20:31:51;;;;;;;8.30;6.20;;;;;;;4.70;78.14;96053.97;5075792;28;20124;-80
2023/11/11 20:34:19;;;;;;;8.68;6.45;;;;;;;4.75;78.03;96052.53;5074441;28;20553;-81
2023/11/11 20:36:47;;;;;;;9.10;6.45;;;;;;;4.78;77.45;96048.84;5074611;28;20058;-79
2023/11/11 20:39:15;;;;;;;13.73;7.88;;;;;;;4.74;76.14;96052.69;5074347;28;20063;-81
2023/11/11 20:41:43;;;;;;;10.23;6.47;;;;;;;4.69;75.93;96044.63;5083896;28;20146;-81
2023/11/11 20:44:10;;;;;;;12.32;7.88;;;;;;;4.66;77.16;96050.13;5087520;28;20143;-80
2023/11/11 20:46:41;;;;;;;22.65;13.15;;;;;;;4.64;76.35;96046.88;5081320;28;20059;-79
2023/11/11 20:49:09;;;;;;;16.98;8.80;;;;;;;4.63;76.21;96045.25;5074103;28;20049;-80
2023/11/11 20:51:43;;;;;;;14.40;8.35;;;;;;;4.60;76.03;96045.59;5087644;28;20126;-80
2023/11/11 20:54:11;;;;;;;17.13;8.27;;;;;;;4.60;76.78;96048.16;5073683;28;20493;-81
2023/11/11 20:56:39;;;;;;;13.00;6.57;;;;;;;4.64;76.40;96046.88;5074085;28;20424;-81
2023/11/11 20:59:07;;;;;;;15.02;6.70;;;;;;;4.66;75.74;96044.94;5075123;28;20159;-81
2023/11/11 21:01:36;;;;;;;11.30;6.13;;;;;;;4.66;76.20;96050.13;5073663;28;20049;-80
2023/11/11 21:04:05;;;;;;;14.48;7.78;;;;;;;4.61;75.67;96044.59;5073876;28;20110;-80
2023/11/11 21:06:33;;;;;;;14.85;8.30;;;;;;;4.62;76.04;96036.69;5073737;28;20433;-80
2023/11/11 21:09:01;;;;;;;15.45;8.93;;;;;;;4.64;77.04;96031.38;5073626;28;20048;-81
2023/11/11 21:11:28;;;;;;;14.88;8.43;;;;;;;4.70;77.47;96036.72;5073278;28;20041;-81
2023/11/11 21:13:56;;;;;;;13.90;6.88;;;;;;;4.70;76.22;96036.72;5077946;28;20062;-80
2023/11/11 21:16:24;;;;;;;8.75;6.00;;;;;;;4.77;77.55;96036.91;5092722;28;20108;-81
2023/11/11 21:18:52;;;;;;;5.75;4.10;;;;;;;4.79;76.95;96023.78;5092493;28;20055;-80
2023/11/11 21:21:20;;;;;;;7.07;4.80;;;;;;;4.83;78.60;96025.94;5088065;28;20107;-82
2023/11/11 21:23:48;;;;;;;9.75;6.15;;;;;;;4.81;77.75;96022.69;5074007;28;20533;-81
2023/11/11 21:26:17;;;;;;;12.75;5.63;;;;;;;4.82;77.09;96029.47;5074850;28;20044;-80
2023/11/11 21:28:44;;;;;;;9.38;5.32;;;;;;;4.83;77.85;96025.09;5073208;28;20163;-80
2023/11/11 21:31:13;;;;;;;8.73;4.78;;;;;;;4.85;77.48;96021.38;5072894;28;20556;-80
2023/11/11 21:33:41;;;;;;;8.88;4.85;;;;;;;4.84;76.66;96014.59;5073159;28;20052;-80
2023/11/11 21:36:10;;;;;;;8.10;4.13;;;;;;;4.82;76.04;96024.28;5072120;28;20441;-80
2023/11/11 21:38:40;;;;;;;14.65;7.68;;;;;;;4.87;77.91;96022.03;5073076;28;20131;-81
2023/11/11 21:41:07;;;;;;;13.57;7.15;;;;;;;4.91;78.24;96020.75;5072954;28;20131;-80
2023/11/11 21:43:35;;;;;;;11.00;6.65;;;;;;;4.94;77.64;96010.09;5072677;28;20045;-79
2023/11/11 21:46:03;;;;;;;8.82;6.38;;;;;;;4.98;77.47;96015.75;5072571;28;20064;-80
2023/11/11 21:48:30;;;;;;;7.93;5.38;;;;;;;5.00;76.35;96020.75;5072465;28;20056;-80
2023/11/11 21:50:58;;;;;;;5.85;4.20;;;;;;;5.02;76.02;96011.06;5072548;28;20498;-80
2023/11/11 21:53:26;;;;;;;4.78;3.92;;;;;;;5.04;75.50;96009.13;5072439;28;20052;-80
2023/11/11 21:55:54;;;;;;;6.15;4.30;;;;;;;5.05;75.40;96008.16;5089414;28;20093;-82
2023/11/11 21:58:22;;;;;;;6.78;4.30;;;;;;;5.09;76.56;96001.69;5084826;28;20063;-81
2023/11/11 22:00:50;;;;;;;5.30;4.10;;;;;;;5.12;76.75;96009.13;5074944;28;20036;-81
2023/11/11 22:03:18;;;;;;;4.68;3.70;;;;;;;5.10;76.24;95998.16;5075031;28;20139;-81
2023/11/11 22:05:45;;;;;;;7.22;4.53;;;;;;;5.07;75.39;96001.88;5086149;28;20398;-80
2023/11/11 22:08:13;;;;;;;4.95;3.45;;;;;;;5.08;75.34;95992.34;5093912;28;20078;-79
2023/11/11 22:10:41;;;;;;;5.63;3.10;;;;;;;5.11;75.26;95994.56;5096895;28;20054;-79
2023/11/11 22:13:10;;;;;;;3.83;3.08;;;;;;;5.15;76.50;95982.94;5096402;28;20045;-81
2023/11/11 22:15:38;;;;;;;10.13;6.63;;;;;;;5.17;76.94;95986.19;5077471;28;20131;-81
2023/11/11 22:18:06;;;;;;;24.10;13.88;;;;;;;5.21;77.21;95977.13;5075188;28;20058;-81
2023/11/11 22:20:33;;;;;;;9.82;5.93;;;;;;;5.27;76.85;95981.66;5075119;28;20044;-81
2023/11/11 22:23:01;;;;;;;5.72;4.10;;;;;;;5.29;76.37;95981.47;5074580;28;20080;-80
2023/11/11 22:25:29;;;;;;;4.15;3.65;;;;;;;5.32;76.15;95983.75;5074381;28;20055;-81
2023/11/11 22:27:56;;;;;;;4.80;3.60;;;;;;;5.32;76.31;95981.97;5073876;28;20051;-80
2023/11/11 22:30:25;;;;;;;6.68;3.83;;;;;;;5.36;76.77;95983.25;5074165;28;20076;-81
2023/11/11 22:32:53;;;;;;;5.68;3.72;;;;;;;5.41;76.37;95987.13;5074634;28;20486;-80
2023/11/11 22:35:21;;;;;;;5.30;3.30;;;;;;;5.43;75.84;95990.34;5074793;28;20045;-81
2023/11/11 22:37:49;;;;;;;5.60;4.13;;;;;;;5.48;76.70;95982.91;5074157;28;20080;-81
2023/11/11 22:40:16;;;;;;;7.25;3.97;;;;;;;5.51;77.51;95975.63;5074231;28;20109;-81
2023/11/11 22:42:44;;;;;;;5.45;3.42;;;;;;;5.56;77.27;95975.13;5074138;28;20048;-81
2023/11/11 22:45:12;;;;;;;6.05;3.58;;;;;;;5.57;76.31;95971.56;5074357;28;20131;-81
2023/11/11 22:47:44;;;;;;;4.72;3.60;;;;;;;5.58;76.03;95966.22;5074304;28;20088;-81
2023/11/11 22:50:15;;;;;;;4.80;3.83;;;;;;;5.61;77.21;95966.88;5079127;28;20536;-81
2023/11/11 22:52:43;;;;;;;6.00;3.28;;;;;;;5.61;76.56;95961.69;5078869;28;20054;-81
2023/11/11 22:55:11;;;;;;;4.57;3.08;;;;;;;5.58;77.45;95962.84;5078138;28;20059;-81
2023/11/11 22:57:40;;;;;;;5.45;3.70;;;;;;;5.58;77.48;95963.63;5077608;28;20075;-81
2023/11/11 23:00:10;;;;;;;6.65;3.88;;;;;;;5.62;79.81;95969.31;5078482;28;20135;-80
2023/11/11 23:02:37;;;;;;;4.95;3.22;;;;;;;5.65;79.70;95963.78;5078446;28;20052;-81
2023/11/11 23:05:07;;;;;;;4.60;3.63;;;;;;;5.65;81.63;95966.38;5078905;28;20052;-81
2023/11/11 23:07:35;;;;;;;4.25;3.47;;;;;;;5.67;80.87;95964.41;5078929;28;20084;-81
2023/11/11 23:10:03;;;;;;;3.50;3.20;;;;;;;5.63;78.86;95965.72;5079375;28;20405;-81
2023/11/11 23:12:32;;;;;;;3.45;2.83;;;;;;;5.60;79.23;95968.66;5079239;28;20106;-81
2023/11/11 23:14:59;;;;;;;4.55;2.53;;;;;;;5.56;78.48;95965.59;5079701;28;20680;-81
2023/11/11 23:17:27;;;;;;;3.88;2.90;;;;;;;5.57;78.29;95966.38;5079575;28;20429;-81
2023/11/11 23:19:56;;;;;;;3.47;3.05;;;;;;;5.60;78.99;95970.41;5079297;28;20048;-81
2023/11/11 23:22:25;;;;;;;10.13;4.40;;;;;;;5.59;78.38;95964.44;5077901;28;20513;-81
2023/11/11 23:24:52;;;;;;;6.05;4.53;;;;;;;5.56;77.35;95957.03;5079267;28;20104;-81
2023/11/11 23:27:20;;;;;;;5.72;3.15;;;;;;;5.54;77.31;95956.38;5079155;28;20098;-81
2023/11/11 23:29:47;;;;;;;5.30;3.50;;;;;;;5.51;76.79;95956.69;5078893;28;20058;-81
2023/11/11 23:32:15;;;;;;;4.50;2.40;;;;;;;5.48;76.79;95957.03;5078922;28;20091;-81
2023/11/11 23:34:42;;;;;;;3.67;3.03;;;;;;;5.43;77.01;95956.72;5080221;28;20052;-80
2023/11/11 23:37:11;;;;;;;6.32;3.22;;;;;;;5.42;78.39;95953.31;5083927;28;20049;-80
2023/11/11 23:39:42;;;;;;;3.22;2.60;;;;;;;5.44;80.46;95951.38;5088971;28;20055;-81
2023/11/11 23:42:09;;;;;;;4.43;4.03;;;;;;;5.50;82.35;95949.91;5078395;28;20055;-81
2023/11/11 23:44:37;;;;;;;4.95;3.55;;;;;;;5.52;82.33;95953.16;5078791;28;20139;-81
2023/11/11 23:47:05;;;;;;;4.85;2.92;;;;;;;5.50;81.64;95960.25;5078473;28;20485;-81
2023/11/11 23:49:33;;;;;;;3.30;3.00;;;;;;;5.48;81.31;95955.25;5078890;28;20052;-81
2023/11/11 23:52:01;;;;;;;3.45;3.15;;;;;;;5.47;81.61;95956.22;5078607;28;20080;-81
2023/11/11 23:54:30;;;;;;;5.32;3.78;;;;;;;5.52;82.27;95951.34;5078441;28;20052;-81
2023/11/11 23:56:59;;;;;;;5.85;4.30;;;;;;;5.48;79.81;95951.84;5078557;28;20049;-81
2023/11/11 23:59:27;;;;;;;6.15;3.83;;;;;;;5.43;79.90;95946.38;5078144;28;20048;-81
